Cypress Gardens, Louisiana
Current Conditions -  °F | °C
As of 10:53 AM on Friday 28 Nov 2014 (Local Time) from KNEW Reporting Station
Clear Clear  
Wind Chill: 54°   Ceiling: Unl
Heat Index: 54°   Visibility: 10mi
Dew Point: 39°   Wind: 13mph
Humidity: 57%   Direction: 100°E
Pressure: 30.42"   Gusts: NA
Location:  29.9486°N, 89.8975°W
Report Text: KNEW 281653Z 10011KT 10SM CLR 12/04 A3042 RMK AO2 SLP295 T01220039
Loading
Personal Weather Stations






























Interactive Weather Map New forecast layout! Learn more

10-Day Weather Forecast

Advertisements
Track Severe Weather on mobile